Time;durP1;ratioP1;P1;durP2;ratioP2;P2;SDS_P1;SDS_P2;PMS_P1;PMS_P2;Temp;Humidity;BMP_temperature;BMP_pressure;BME280_temperature;BME280_humidity;BME280_pressure;Samples;Min_cycle;Max_cycle;Signal;HPM_P1;HPM_P2
2022/03/21 00:02:01;;;;;;;48.85;30.95;;;1.80;99.90;;;;;;4871798;29;20155;-84
2022/03/21 00:04:27;;;;;;;47.17;31.55;;;1.80;99.90;;;;;;4887938;29;20056;-84
2022/03/21 00:06:53;;;;;;;49.78;31.73;;;2.30;99.90;;;;;;4878439;29;20499;-83
2022/03/21 00:09:18;;;;;;;52.13;32.13;;;1.90;99.90;;;;;;4901931;29;20153;-84
2022/03/21 00:11:44;;;;;;;49.45;32.58;;;3.00;99.90;;;;;;4886343;29;20059;-85
2022/03/21 00:14:11;;;;;;;49.00;32.63;;;3.30;99.90;;;;;;4903838;29;20064;-84
2022/03/21 00:16:38;;;;;;;51.13;32.47;;;2.70;99.90;;;;;;4890018;29;20045;-84
2022/03/21 00:19:04;;;;;;;53.70;33.50;;;1.90;99.90;;;;;;4873207;29;20122;-84
2022/03/21 00:21:30;;;;;;;52.17;33.50;;;3.00;99.90;;;;;;4901460;29;20051;-82
2022/03/21 00:23:56;;;;;;;49.75;32.13;;;1.90;99.90;;;;;;4908722;29;20052;-84
2022/03/21 00:26:22;;;;;;;50.38;33.97;;;1.60;99.90;;;;;;4889309;29;20050;-84
2022/03/21 00:28:49;;;;;;;50.78;32.42;;;1.70;99.90;;;;;;4924574;29;20121;-84
2022/03/21 00:31:16;;;;;;;51.22;32.42;;;1.90;99.90;;;;;;4893368;29;20140;-84
2022/03/21 00:33:42;;;;;;;50.67;32.78;;;1.60;99.90;;;;;;4886962;29;20052;-83
2022/03/21 00:36:09;;;;;;;53.63;33.38;;;1.60;99.90;;;;;;4892712;29;20056;-84
2022/03/21 00:38:41;;;;;;;51.97;32.80;;;1.60;99.90;;;;;;4923991;29;20056;-84
2022/03/21 00:41:07;;;;;;;52.17;34.53;;;1.50;99.90;;;;;;4886552;29;20048;-83
2022/03/21 00:43:34;;;;;;;50.47;31.23;;;2.90;99.90;;;;;;4887559;29;20078;-82
2022/03/21 00:46:00;;;;;;;52.40;33.58;;;2.90;99.90;;;;;;4887312;29;20048;-84
2022/03/21 00:48:28;;;;;;;51.95;33.25;;;2.10;99.90;;;;;;4901905;29;20696;-84
2022/03/21 00:50:55;;;;;;;53.47;33.72;;;1.40;99.90;;;;;;4902210;29;20048;-82
2022/03/21 00:53:21;;;;;;;50.30;33.03;;;1.40;99.90;;;;;;4918410;29;20048;-84
2022/03/21 00:55:48;;;;;;;50.83;31.83;;;2.70;99.90;;;;;;4901303;29;20206;-84
2022/03/21 00:58:14;;;;;;;50.20;32.17;;;1.40;99.90;;;;;;4886482;29;20048;-84
2022/03/21 01:00:40;;;;;;;45.63;30.25;;;1.40;99.90;;;;;;4921762;29;20052;-83
2022/03/21 01:03:06;;;;;;;50.47;32.53;;;1.70;99.90;;;;;;4887911;29;20414;-84
2022/03/21 01:05:32;;;;;;;51.13;32.05;;;1.30;99.90;;;;;;4901335;29;20515;-84
2022/03/21 01:07:59;;;;;;;51.10;33.20;;;1.70;99.90;;;;;;4869809;29;20128;-84
2022/03/21 01:10:27;;;;;;;48.53;31.77;;;1.80;99.90;;;;;;4887400;29;20184;-84
2022/03/21 01:12:53;;;;;;;49.47;31.55;;;1.30;99.90;;;;;;4885380;29;20078;-82
2022/03/21 01:15:22;;;;;;;48.78;31.75;;;1.30;99.90;;;;;;4922110;29;20521;-83
2022/03/21 01:17:49;;;;;;;50.97;31.95;;;2.20;99.90;;;;;;4902595;29;20045;-83
2022/03/21 01:20:17;;;;;;;47.53;31.70;;;2.10;99.90;;;;;;4886715;29;20084;-83
2022/03/21 01:22:43;;;;;;;47.58;31.27;;;1.90;99.90;;;;;;4902935;29;20048;-85
2022/03/21 01:25:10;;;;;;;50.50;31.92;;;1.20;99.90;;;;;;4886776;29;20570;-83
2022/03/21 01:27:37;;;;;;;47.83;30.38;;;1.30;99.90;;;;;;4901841;29;20041;-85
2022/03/21 01:30:04;;;;;;;45.78;29.83;;;1.20;99.90;;;;;;4918113;29;20052;-84
2022/03/21 01:32:30;;;;;;;48.65;30.92;;;1.10;99.90;;;;;;4902782;29;20048;-85
2022/03/21 01:34:55;;;;;;;45.47;30.65;;;1.10;99.90;;;;;;4886310;29;20040;-85
2022/03/21 01:37:21;;;;;;;46.60;30.25;;;1.10;99.90;;;;;;4900760;29;20060;-83
2022/03/21 01:39:47;;;;;;;52.17;32.15;;;1.10;99.90;;;;;;4883296;29;20103;-85
2022/03/21 01:42:14;;;;;;;48.40;31.38;;;1.40;99.90;;;;;;4901030;29;20059;-85
2022/03/21 01:44:40;;;;;;;44.72;29.30;;;1.90;99.90;;;;;;4887018;29;20378;-85
2022/03/21 01:47:06;;;;;;;49.83;32.22;;;2.30;99.90;;;;;;4901871;29;20108;-84
2022/03/21 01:49:32;;;;;;;47.33;31.73;;;1.10;99.90;;;;;;4900430;29;20052;-82
2022/03/21 01:51:58;;;;;;;47.05;30.33;;;1.10;99.90;;;;;;4886011;29;20049;-85
2022/03/21 01:57:09;;;;;;;46.28;30.50;;;1.00;99.90;;;;;;4920457;29;20505;-85
2022/03/21 01:59:36;;;;;;;47.33;30.30;;;1.10;99.90;;;;;;4903749;29;20111;-84
2022/03/21 02:02:03;;;;;;;49.17;31.40;;;1.30;99.90;;;;;;4907029;29;20103;-84
2022/03/21 02:04:29;;;;;;;48.63;30.58;;;1.00;99.90;;;;;;4906260;29;20059;-85
2022/03/21 02:06:55;;;;;;;47.63;30.77;;;1.00;99.90;;;;;;4871865;29;20060;-83
2022/03/21 02:09:21;;;;;;;47.65;30.67;;;1.70;99.90;;;;;;4869137;29;20468;-83
2022/03/21 02:11:47;;;;;;;51.63;31.40;;;1.00;99.90;;;;;;4884617;29;20079;-83
2022/03/21 02:14:12;;;;;;;49.75;32.47;;;2.20;99.90;;;;;;4885898;29;20144;-84
2022/03/21 02:16:39;;;;;;;53.28;31.73;;;1.80;99.90;;;;;;4900558;29;20073;-83
2022/03/21 02:19:21;;;;;;;47.95;31.33;;;1.00;99.90;;;;;;4891979;29;20131;-84
2022/03/21 02:22:12;;;;;;;48.30;30.58;;;1.40;99.90;;;;;;4901815;29;20077;-84
2022/03/21 02:24:54;;;;;;;45.65;28.88;;;1.00;99.90;;;;;;4899201;29;20148;-83
2022/03/21 02:27:21;;;;;;;48.03;31.20;;;0.90;99.90;;;;;;4885859;29;20052;-83
2022/03/21 02:29:48;;;;;;;45.53;29.35;;;0.90;99.90;;;;;;4900705;29;20517;-84
2022/03/21 02:32:15;;;;;;;47.30;30.42;;;0.90;99.90;;;;;;4884044;29;20064;-84
2022/03/21 02:34:41;;;;;;;47.65;31.05;;;2.30;99.90;;;;;;4901309;29;20052;-83
2022/03/21 02:37:09;;;;;;;47.28;31.77;;;0.90;99.90;;;;;;4889746;29;20082;-83
2022/03/21 02:39:36;;;;;;;47.65;32.05;;;1.50;99.90;;;;;;4900024;29;20685;-84
2022/03/21 02:42:03;;;;;;;45.88;31.17;;;0.90;99.90;;;;;;4900749;29;20057;-85
2022/03/21 02:44:34;;;;;;;42.92;29.42;;;0.90;99.90;;;;;;4897747;29;20080;-84
2022/03/21 02:46:59;;;;;;;46.65;30.75;;;0.90;99.90;;;;;;4887929;29;20056;-84
2022/03/21 02:49:25;;;;;;;48.60;30.90;;;0.90;99.90;;;;;;4884573;29;20051;-82
2022/03/21 02:51:52;;;;;;;44.42;29.50;;;2.00;99.90;;;;;;4915045;29;20068;-82
2022/03/21 02:54:21;;;;;;;42.63;29.38;;;0.90;99.90;;;;;;4899985;29;20059;-85
2022/03/21 02:56:47;;;;;;;44.28;28.80;;;2.10;99.90;;;;;;4898329;29;20502;-84
2022/03/21 02:59:12;;;;;;;43.40;29.30;;;1.70;99.90;;;;;;4884733;29;20111;-84
2022/03/21 03:01:38;;;;;;;45.78;29.85;;;1.20;99.90;;;;;;4898690;29;20135;-84
2022/03/21 03:04:04;;;;;;;44.53;30.08;;;0.90;99.90;;;;;;4914263;29;20502;-85
2022/03/21 03:06:29;;;;;;;45.72;30.52;;;1.30;99.90;;;;;;4914039;29;20047;-84
2022/03/21 03:08:56;;;;;;;43.65;29.08;;;1.80;99.90;;;;;;4883152;29;20127;-84
2022/03/21 03:11:22;;;;;;;43.78;30.00;;;2.70;99.90;;;;;;4882606;29;20056;-84
2022/03/21 03:13:47;;;;;;;44.45;28.77;;;0.90;99.90;;;;;;4898091;29;20072;-84
2022/03/21 03:16:13;;;;;;;39.88;28.80;;;2.20;99.90;;;;;;4883802;29;20052;-85
2022/03/21 03:18:43;;;;;;;46.90;31.33;;;0.90;99.90;;;;;;4898703;29;20067;-83
2022/03/21 03:21:10;;;;;;;45.08;30.40;;;1.90;99.90;;;;;;4884918;29;20055;-84
2022/03/21 03:23:38;;;;;;;43.50;29.60;;;0.80;99.90;;;;;;4882413;29;20203;-84
2022/03/21 03:26:05;;;;;;;48.25;31.70;;;2.20;99.90;;;;;;4919261;29;20046;-84
2022/03/21 03:28:32;;;;;;;46.38;29.35;;;1.50;99.90;;;;;;4890111;29;20052;-83
2022/03/21 03:31:01;;;;;;;43.28;30.27;;;0.80;99.90;;;;;;4886478;29;20781;-82
2022/03/21 03:33:27;;;;;;;44.78;31.20;;;0.90;99.90;;;;;;4901331;29;20048;-82
2022/03/21 03:35:54;;;;;;;44.75;29.33;;;0.80;99.90;;;;;;4901191;29;20049;-83
2022/03/21 03:38:20;;;;;;;43.55;30.15;;;1.70;99.90;;;;;;4887495;29;20059;-83
2022/03/21 03:40:46;;;;;;;44.30;29.50;;;0.80;99.90;;;;;;4901717;29;20044;-83
2022/03/21 03:43:15;;;;;;;45.57;30.50;;;1.00;99.90;;;;;;4863823;29;1154745;-84
2022/03/21 03:45:44;;;;;;;44.75;29.58;;;1.80;99.90;;;;;;4892812;29;20297;-84
2022/03/21 03:48:10;;;;;;;45.97;30.08;;;0.80;99.90;;;;;;4907336;29;20555;-83
2022/03/21 03:50:36;;;;;;;46.53;30.52;;;0.80;99.90;;;;;;4903547;29;20044;-84
2022/03/21 03:53:02;;;;;;;46.85;30.65;;;1.20;99.90;;;;;;4878072;29;20043;-84
2022/03/21 03:55:27;;;;;;;44.88;30.63;;;0.80;99.90;;;;;;4902115;29;20056;-83
2022/03/21 03:57:53;;;;;;;45.47;30.00;;;0.70;99.90;;;;;;4887953;29;20471;-84
2022/03/21 04:00:20;;;;;;;48.13;30.98;;;1.00;99.90;;;;;;4888353;29;20418;-84
2022/03/21 04:05:30;;;;;;;47.30;30.17;;;1.20;99.90;;;;;;4918712;29;20862;-83
2022/03/21 04:07:56;;;;;;;43.67;28.92;;;1.10;99.90;;;;;;4902472;29;20040;-84
2022/03/21 04:10:22;;;;;;;48.33;31.50;;;2.00;99.90;;;;;;4901755;29;20048;-85
2022/03/21 04:12:51;;;;;;;46.88;30.88;;;0.70;99.90;;;;;;4886783;29;20148;-84
2022/03/21 04:15:18;;;;;;;43.78;29.63;;;1.60;99.90;;;;;;4894394;29;20455;-85
2022/03/21 04:17:45;;;;;;;46.40;32.22;;;0.70;99.90;;;;;;4902059;29;20347;-84
2022/03/21 04:20:12;;;;;;;48.67;29.95;;;1.00;99.90;;;;;;4888888;29;20056;-84
2022/03/21 04:22:37;;;;;;;48.65;32.28;;;0.70;99.90;;;;;;4875967;29;20052;-83
2022/03/21 04:25:06;;;;;;;50.28;33.67;;;0.70;99.90;;;;;;4907890;29;20052;-85
2022/03/21 04:27:32;;;;;;;44.95;29.88;;;0.70;99.90;;;;;;4903041;29;20115;-83
2022/03/21 04:29:59;;;;;;;46.05;30.90;;;0.70;99.90;;;;;;4891920;29;20047;-84
2022/03/21 04:32:25;;;;;;;47.58;29.85;;;1.80;99.90;;;;;;4905885;29;20055;-85
2022/03/21 04:34:50;;;;;;;44.78;30.13;;;0.70;99.90;;;;;;4870740;29;20233;-84
2022/03/21 04:37:16;;;;;;;42.75;27.88;;;0.60;99.90;;;;;;4887008;29;20529;-83
2022/03/21 04:39:42;;;;;;;45.20;29.65;;;0.80;99.90;;;;;;4888822;29;20040;-83
2022/03/21 04:42:08;;;;;;;45.10;30.73;;;0.60;99.90;;;;;;4906662;29;20063;-84
2022/03/21 04:44:34;;;;;;;43.45;29.27;;;1.30;99.90;;;;;;4885930;29;20085;-83
2022/03/21 04:47:00;;;;;;;45.35;29.70;;;0.50;99.90;;;;;;4901989;29;20085;-84
2022/03/21 04:49:26;;;;;;;46.95;30.65;;;0.40;99.90;;;;;;4902786;29;20107;-84
2022/03/21 04:51:52;;;;;;;44.80;29.33;;;1.30;99.90;;;;;;4903610;29;20523;-85
2022/03/21 04:54:17;;;;;;;44.50;29.80;;;0.40;99.90;;;;;;4876808;29;20079;-83
2022/03/21 04:56:43;;;;;;;46.25;29.80;;;2.00;99.90;;;;;;4868957;29;20048;-84
2022/03/21 04:59:09;;;;;;;42.97;27.65;;;1.10;99.90;;;;;;4871439;29;20197;-82
2022/03/21 05:01:36;;;;;;;48.97;32.65;;;1.00;99.90;;;;;;4892413;29;20056;-84
2022/03/21 05:04:02;;;;;;;44.65;29.75;;;0.40;99.90;;;;;;4901108;29;20410;-83
2022/03/21 05:06:28;;;;;;;46.55;30.67;;;1.30;99.90;;;;;;4887707;29;20040;-84
2022/03/21 05:08:54;;;;;;;49.20;32.63;;;0.40;99.90;;;;;;4885687;29;20063;-84
2022/03/21 05:11:20;;;;;;;46.20;31.30;;;0.40;99.90;;;;;;4888066;29;20056;-84
2022/03/21 05:13:45;;;;;;;47.25;29.85;;;2.20;99.90;;;;;;4917427;29;20044;-84
2022/03/21 05:16:11;;;;;;;48.42;30.35;;;0.40;99.90;;;;;;4901836;29;20137;-83
2022/03/21 05:18:37;;;;;;;49.70;31.60;;;1.50;99.90;;;;;;4900702;29;20079;-83
2022/03/21 05:21:04;;;;;;;46.95;29.95;;;0.50;99.90;;;;;;4901436;29;20098;-84
2022/03/21 05:31:43;;;;;;;48.45;30.45;;;0.30;99.90;;;;;;4887170;29;20048;-83
2022/03/21 05:36:54;;;;;;;46.55;29.80;;;1.70;99.90;;;;;;4902622;29;20061;-84
2022/03/21 05:39:22;;;;;;;47.17;29.58;;;0.80;99.90;;;;;;4875515;29;20059;-84
2022/03/21 05:41:50;;;;;;;49.05;31.13;;;0.30;99.90;;;;;;4901925;29;20052;-84
2022/03/21 05:44:16;;;;;;;47.67;31.30;;;1.00;99.90;;;;;;4901525;29;20068;-83
2022/03/21 05:46:42;;;;;;;47.55;30.70;;;0.30;99.90;;;;;;4890640;29;20055;-86
2022/03/21 05:49:07;;;;;;;49.25;28.90;;;1.80;99.90;;;;;;4883965;29;20054;-84
2022/03/21 05:51:38;;;;;;;52.17;30.83;;;0.30;99.90;;;;;;4883872;29;20470;-86
2022/03/21 05:54:08;;;;;;;45.60;29.92;;;0.30;99.90;;;;;;4875478;29;20074;-83
2022/03/21 05:56:35;;;;;;;44.13;29.60;;;2.10;99.90;;;;;;4907962;29;20084;-84
2022/03/21 06:00:20;;;;;;;47.13;29.95;;;-0.10;99.90;;;;;;4893730;29;20098;-84
2022/03/21 06:01:53;;;;;;;47.80;30.42;;;0.30;99.90;;;;;;4900930;29;20052;-84
2022/03/21 06:04:21;;;;;;;51.50;32.35;;;0.40;99.90;;;;;;4903838;29;20143;-84
2022/03/21 06:06:47;;;;;;;48.63;30.23;;;0.40;99.90;;;;;;4906985;29;20060;-83
2022/03/21 06:09:14;;;;;;;44.50;30.15;;;0.40;99.90;;;;;;4917535;29;20133;-83
2022/03/21 06:11:39;;;;;;;49.63;30.92;;;0.80;99.90;;;;;;4884345;29;20040;-83
2022/03/21 06:14:06;;;;;;;47.63;30.58;;;0.30;99.90;;;;;;4871820;29;20051;-84
2022/03/21 06:16:32;;;;;;;45.00;29.45;;;0.60;99.90;;;;;;4902145;29;20044;-82
2022/03/21 06:19:00;;;;;;;49.88;30.63;;;0.80;99.90;;;;;;4900843;29;20074;-87
2022/03/21 06:21:28;;;;;;;48.33;30.02;;;0.40;99.90;;;;;;4911637;29;20059;-88
2022/03/21 06:23:54;;;;;;;48.05;30.33;;;1.30;99.90;;;;;;4893384;29;20108;-88
2022/03/21 06:26:20;;;;;;;50.28;30.52;;;0.40;99.90;;;;;;4888898;29;20116;-86
2022/03/21 06:28:46;;;;;;;46.85;29.80;;;1.10;99.90;;;;;;4904370;29;20079;-88
2022/03/21 06:31:13;;;;;;;50.15;32.15;;;;;;;;;;4903867;29;20426;-90
2022/03/21 06:33:40;;;;;;;47.38;31.20;;;0.60;99.90;;;;;;4884750;29;20051;-88
2022/03/21 06:36:06;;;;;;;51.38;32.40;;;-0.80;99.90;;;;;;4904100;29;20052;-87
2022/03/21 06:38:32;;;;;;;51.22;31.50;;;2.70;99.90;;;;;;4889614;29;20142;-89
2022/03/21 06:40:59;;;;;;;50.25;31.40;;;1.50;99.90;;;;;;4910546;29;20167;-87
2022/03/21 06:43:25;;;;;;;51.17;32.67;;;1.70;99.90;;;;;;4904313;29;20091;-89
2022/03/21 06:45:52;;;;;;;52.25;33.80;;;0.80;99.90;;;;;;4902522;29;20108;-90
2022/03/21 06:48:20;;;;;;;54.85;33.13;;;0.80;99.90;;;;;;4887723;29;20091;-90
2022/03/21 06:50:47;;;;;;;57.03;33.03;;;2.70;99.90;;;;;;4902996;29;20498;-86
2022/03/21 06:53:14;;;;;;;48.00;30.70;;;0.90;99.90;;;;;;4909302;29;20055;-87
2022/03/21 06:55:41;;;;;;;52.28;32.50;;;0.90;99.90;;;;;;4892288;29;20953;-84
2022/03/21 06:58:11;;;;;;;52.28;33.10;;;0.90;99.90;;;;;;4901892;29;20135;-84
2022/03/21 07:00:39;;;;;;;46.28;30.77;;;2.10;99.90;;;;;;4885116;29;20049;-83
2022/03/21 07:03:05;;;;;;;52.25;31.85;;;2.60;99.90;;;;;;4900922;29;20060;-86
2022/03/21 07:05:31;;;;;;;49.05;32.20;;;;;;;;;;4899980;29;20102;-87
2022/03/21 07:07:57;;;;;;;53.75;34.22;;;1.10;99.90;;;;;;4889477;29;20122;-85
2022/03/21 07:10:23;;;;;;;52.42;32.17;;;3.00;99.90;;;;;;4905249;29;20443;-85
2022/03/21 07:12:50;;;;;;;50.28;31.42;;;2.00;99.90;;;;;;4906427;29;20060;-85
2022/03/21 07:15:16;;;;;;;56.72;33.83;;;2.70;99.90;;;;;;4908907;29;20052;-83
2022/03/21 07:17:42;;;;;;;50.78;33.30;;;1.50;99.90;;;;;;4894337;29;20045;-85
2022/03/21 07:20:12;;;;;;;51.22;33.17;;;1.50;99.90;;;;;;4905974;29;20490;-86
2022/03/21 07:22:39;;;;;;;55.08;33.45;;;3.30;99.90;;;;;;4890428;29;20056;-86
2022/03/21 07:25:06;;;;;;;55.78;34.60;;;2.00;99.90;;;;;;4888484;29;20056;-87
2022/03/21 07:27:33;;;;;;;51.80;33.78;;;1.70;99.90;;;;;;4891015;29;20072;-86
2022/03/21 07:29:59;;;;;;;55.03;33.92;;;3.90;99.90;;;;;;4905556;29;20680;-84
2022/03/21 07:32:24;;;;;;;51.03;32.35;;;3.40;99.90;;;;;;4920728;29;20072;-85
2022/03/21 07:34:50;;;;;;;51.35;34.90;;;3.40;99.90;;;;;;4895735;29;20154;-86
2022/03/21 07:37:16;;;;;;;56.67;35.88;;;2.10;99.90;;;;;;4925418;29;20139;-85
2022/03/21 07:39:47;;;;;;;55.25;34.45;;;2.30;99.90;;;;;;4906083;29;20059;-85
2022/03/21 07:42:16;;;;;;;49.80;32.15;;;2.40;99.90;;;;;;4895670;29;20059;-87
2022/03/21 07:47:28;;;;;;;52.78;35.30;;;3.40;99.90;;;;;;4906348;29;20052;-85
2022/03/21 07:49:55;;;;;;;58.83;36.75;;;2.90;99.90;;;;;;4905954;29;20555;-86
2022/03/21 07:52:21;;;;;;;59.63;36.50;;;5.00;99.90;;;;;;4905102;29;20048;-85
2022/03/21 07:54:55;;;;;;;64.95;39.17;;;4.70;99.90;;;;;;4904983;29;20139;-86
2022/03/21 07:57:23;;;;;;;56.85;37.92;;;3.60;99.90;;;;;;4889841;29;20052;-85
2022/03/21 07:59:50;;;;;;;56.35;38.60;;;3.50;99.90;;;;;;4906284;29;20045;-86
2022/03/21 08:02:19;;;;;;;56.25;37.28;;;4.00;99.90;;;;;;4892308;29;20058;-86
2022/03/21 08:04:48;;;;;;;54.92;38.20;;;4.10;99.90;;;;;;4904780;29;20055;-85
2022/03/21 08:07:27;;;;;;;53.05;35.92;;;4.30;99.90;;;;;;4896542;29;20064;-85
2022/03/21 08:09:53;;;;;;;54.10;36.92;;;4.70;99.90;;;;;;4911041;29;20171;-87
2022/03/21 08:12:22;;;;;;;52.25;35.78;;;4.90;99.90;;;;;;4912438;29;20371;-85
2022/03/21 08:14:48;;;;;;;52.42;37.35;;;6.70;99.90;;;;;;4887726;29;20043;-86
2022/03/21 08:17:13;;;;;;;50.38;35.83;;;6.70;99.90;;;;;;4896003;29;20048;-87
2022/03/21 08:19:42;;;;;;;48.45;35.00;;;5.70;99.90;;;;;;4880212;29;20047;-86
2022/03/21 08:22:08;;;;;;;48.60;34.63;;;7.20;99.90;;;;;;4889221;29;20083;-86
2022/03/21 08:24:35;;;;;;;45.38;32.75;;;6.20;99.90;;;;;;4889519;29;20525;-88
2022/03/21 08:27:01;;;;;;;42.53;33.20;;;6.50;99.90;;;;;;4910124;29;20079;-87
2022/03/21 08:29:27;;;;;;;43.17;31.10;;;6.70;99.90;;;;;;4889070;29;20087;-87
2022/03/21 08:31:53;;;;;;;43.03;31.50;;;7.10;99.90;;;;;;4903101;29;20087;-86
2022/03/21 08:34:18;;;;;;;39.53;30.40;;;7.00;99.90;;;;;;4904587;29;20048;-86
2022/03/21 08:36:45;;;;;;;39.25;29.75;;;7.30;99.90;;;;;;4889428;29;20056;-86
2022/03/21 08:39:11;;;;;;;40.70;28.95;;;7.50;99.90;;;;;;4873593;29;20055;-86
2022/03/21 08:41:39;;;;;;;34.75;28.05;;;7.80;99.90;;;;;;4905346;29;20084;-85
2022/03/21 08:44:05;;;;;;;34.40;27.20;;;8.00;99.90;;;;;;4904716;29;20068;-87
2022/03/21 08:46:32;;;;;;;34.45;26.98;;;8.20;99.90;;;;;;4905367;29;20067;-88
2022/03/21 08:51:43;;;;;;;32.55;26.75;;;8.60;99.90;;;;;;4905788;29;20049;-88
2022/03/21 08:54:10;;;;;;;32.45;26.60;;;8.80;99.90;;;;;;4903743;29;20058;-86
2022/03/21 08:56:36;;;;;;;33.78;25.52;;;9.00;99.90;;;;;;4920475;29;20044;-86
2022/03/21 08:59:02;;;;;;;32.42;25.40;;;9.20;99.90;;;;;;4909527;29;20051;-86
2022/03/21 09:01:28;;;;;;;29.95;25.17;;;9.50;99.90;;;;;;4902557;29;20048;-87
2022/03/21 09:03:57;;;;;;;30.08;24.08;;;9.60;99.90;;;;;;4879091;29;20149;-85
2022/03/21 09:06:26;;;;;;;32.95;23.55;;;9.70;99.90;;;;;;4904814;29;20044;-87
2022/03/21 09:08:52;;;;;;;29.67;24.27;;;10.10;99.90;;;;;;4904846;29;20512;-86
2022/03/21 09:11:18;;;;;;;28.20;22.50;;;10.30;99.90;;;;;;4887468;29;20044;-87
2022/03/21 09:13:48;;;;;;;27.65;23.67;;;10.50;99.90;;;;;;4902780;29;20055;-85
2022/03/21 09:16:14;;;;;;;30.73;24.30;;;10.60;99.90;;;;;;4895063;29;20049;-87
2022/03/21 09:18:41;;;;;;;28.00;23.08;;;10.70;99.90;;;;;;4902747;29;20096;-86
2022/03/21 09:21:08;;;;;;;28.17;23.27;;;10.90;99.90;;;;;;4887884;29;20075;-89
2022/03/21 09:23:34;;;;;;;28.60;22.52;;;11.10;99.90;;;;;;4895046;29;20048;-87
2022/03/21 09:26:01;;;;;;;26.55;22.45;;;11.30;99.90;;;;;;4903559;29;20048;-87
2022/03/21 09:28:31;;;;;;;26.83;22.17;;;11.40;99.90;;;;;;4903616;29;20056;-86
2022/03/21 09:30:58;;;;;;;27.30;23.23;;;11.70;99.90;;;;;;4919273;29;20051;-85
2022/03/21 09:33:24;;;;;;;24.80;20.90;;;12.00;99.90;;;;;;4894393;29;20048;-84
2022/03/21 09:35:50;;;;;;;28.55;21.63;;;12.10;99.90;;;;;;4903574;29;20060;-84
2022/03/21 09:38:17;;;;;;;25.23;21.20;;;12.20;99.90;;;;;;4888566;29;20091;-85
2022/03/21 09:40:47;;;;;;;23.85;20.52;;;12.50;99.90;;;;;;4887680;29;20131;-87
2022/03/21 09:43:14;;;;;;;24.48;19.75;;;12.70;99.90;;;;;;4903742;29;20060;-86
2022/03/21 09:45:40;;;;;;;22.80;19.17;;;13.00;99.90;;;;;;4908762;29;20064;-86
2022/03/21 09:48:11;;;;;;;22.98;19.80;;;13.10;99.90;;;;;;4903266;29;20111;-87
2022/03/21 09:50:40;;;;;;;22.02;18.33;;;13.40;99.90;;;;;;4878630;29;20078;-86
2022/03/21 09:53:10;;;;;;;19.63;17.20;;;13.60;99.90;;;;;;4893756;29;20454;-86
2022/03/21 09:55:35;;;;;;;20.73;17.67;;;13.70;99.90;;;;;;4909631;29;20080;-86
2022/03/21 09:58:02;;;;;;;22.85;18.13;;;13.60;99.90;;;;;;4878639;29;20083;-86
2022/03/21 10:00:28;;;;;;;22.95;17.83;;;13.50;99.90;;;;;;4887016;29;20051;-86
2022/03/21 10:02:55;;;;;;;21.67;17.95;;;12.80;99.90;;;;;;4887393;29;20063;-87
2022/03/21 10:05:40;;;;;;;21.23;17.15;;;13.80;99.90;;;;;;4872889;29;20092;-88
2022/03/21 10:08:21;;;;;;;19.58;16.15;;;14.00;99.90;;;;;;4889838;29;20167;-85
2022/03/21 10:11:04;;;;;;;17.90;16.00;;;14.20;99.90;;;;;;4888331;29;20040;-86
2022/03/21 10:13:34;;;;;;;19.55;16.75;;;14.30;99.90;;;;;;4892608;29;20051;-84
2022/03/21 10:16:18;;;;;;;19.90;15.70;;;14.70;99.90;;;;;;4893555;29;20113;-88
2022/03/21 10:18:53;;;;;;;20.10;17.95;;;14.70;99.90;;;;;;4895714;29;20051;-86
2022/03/21 10:21:23;;;;;;;18.77;16.02;;;14.70;99.90;;;;;;4889038;29;20078;-88
2022/03/21 10:24:06;;;;;;;18.35;15.95;;;14.90;99.90;;;;;;4887080;29;20054;-86
2022/03/21 10:26:39;;;;;;;17.30;15.13;;;15.10;99.90;;;;;;4904223;29;20046;-85
2022/03/21 10:29:10;;;;;;;18.75;15.13;;;15.40;99.90;;;;;;4909846;29;20090;-85
2022/03/21 10:31:42;;;;;;;17.48;14.98;;;15.70;99.90;;;;;;4886094;29;20518;-87
2022/03/21 10:34:15;;;;;;;15.75;13.43;;;15.90;99.90;;;;;;4906321;29;20040;-88
2022/03/21 10:37:00;;;;;;;14.07;12.18;;;16.10;99.90;;;;;;4902299;29;20048;-87
2022/03/21 10:39:27;;;;;;;16.08;13.48;;;16.30;99.50;;;;;;4886533;29;20052;-87
2022/03/21 10:42:09;;;;;;;16.67;13.05;;;16.40;99.90;;;;;;4908650;29;20052;-88
2022/03/21 10:44:36;;;;;;;14.65;12.50;;;16.60;99.90;;;;;;4912222;29;20063;-86
2022/03/21 10:47:05;;;;;;;18.00;12.98;;;16.70;99.90;;;;;;4902833;29;20079;-87
2022/03/21 10:49:38;;;;;;;14.93;11.98;;;16.50;98.80;;;;;;4902765;29;20401;-89
2022/03/21 10:52:09;;;;;;;15.35;12.38;;;16.70;98.60;;;;;;4901260;29;20044;-84
2022/03/21 10:54:49;;;;;;;15.95;12.75;;;16.80;98.20;;;;;;4877057;29;20147;-81
2022/03/21 10:57:27;;;;;;;14.43;12.27;;;16.90;96.50;;;;;;4885306;29;20052;-81
2022/03/21 11:00:11;;;;;;;14.40;12.30;;;17.20;88.10;;;;;;4905830;29;20040;-81
2022/03/21 11:02:52;;;;;;;15.70;12.82;;;17.30;92.70;;;;;;4885349;29;20374;-82
2022/03/21 11:05:19;;;;;;;17.48;12.07;;;17.70;85.20;;;;;;4904597;29;20059;-80
2022/03/21 11:07:46;;;;;;;22.92;12.85;;;17.90;92.30;;;;;;4906461;29;20063;-82
2022/03/21 11:10:12;;;;;;;14.43;12.93;;;17.90;90.20;;;;;;4885928;29;20501;-80
2022/03/21 11:12:41;;;;;;;15.07;12.32;;;17.90;92.10;;;;;;4901018;29;20131;-81
2022/03/21 11:15:09;;;;;;;15.80;12.90;;;18.00;91.00;;;;;;4883568;29;20052;-81
2022/03/21 11:17:36;;;;;;;16.05;12.23;;;18.20;90.90;;;;;;4903213;29;20048;-83
2022/03/21 11:20:06;;;;;;;14.15;11.82;;;18.20;91.00;;;;;;4899497;29;20056;-82
2022/03/21 11:22:36;;;;;;;13.88;11.40;;;18.30;90.20;;;;;;4901525;29;20048;-81
2022/03/21 11:25:11;;;;;;;13.82;11.63;;;18.50;87.60;;;;;;4901499;29;20104;-82
2022/03/21 11:27:46;;;;;;;14.80;11.77;;;18.70;79.00;;;;;;4916124;29;20062;-80
2022/03/21 11:30:15;;;;;;;13.80;11.73;;;18.90;81.10;;;;;;4901139;29;20307;-82
2022/03/21 11:33:18;;;;;;;14.30;12.13;;;19.20;80.90;;;;;;4900917;29;20044;-82
2022/03/21 11:35:51;;;;;;;13.68;11.20;;;19.30;67.70;;;;;;4886705;29;20134;-82
2022/03/21 11:38:45;;;;;;;13.18;11.02;;;19.30;67.70;;;;;;4886477;29;20115;-82
2022/03/21 11:41:21;;;;;;;13.10;11.52;;;19.30;63.60;;;;;;4889960;29;20067;-82
2022/03/21 11:44:08;;;;;;;13.82;11.75;;;19.50;67.50;;;;;;4905113;29;20099;-82
2022/03/21 11:46:37;;;;;;;13.02;10.40;;;19.60;69.60;;;;;;4901808;29;20511;-82
2022/03/21 11:49:19;;;;;;;14.05;11.48;;;19.70;66.10;;;;;;4870447;29;20048;-82
2022/03/21 11:51:57;;;;;;;13.85;12.00;;;19.80;61.60;;;;;;4893739;29;20104;-82
2022/03/21 11:54:43;;;;;;;12.73;11.35;;;19.70;62.20;;;;;;4910095;29;20492;-82
2022/03/21 11:57:10;;;;;;;12.95;11.52;;;19.80;63.50;;;;;;4904434;29;20100;-81
2022/03/21 11:59:36;;;;;;;13.82;11.48;;;19.50;64.00;;;;;;4889201;29;20518;-82
2022/03/21 12:02:24;;;;;;;12.02;10.50;;;19.50;62.10;;;;;;4888091;29;20048;-82
2022/03/21 12:05:10;;;;;;;12.63;9.80;;;19.60;58.70;;;;;;4927735;29;20052;-82
2022/03/21 12:07:38;;;;;;;14.25;10.77;;;19.70;58.40;;;;;;4880333;29;20056;-82
2022/03/21 12:10:04;;;;;;;16.58;11.52;;;19.80;59.30;;;;;;4889353;29;20048;-82
2022/03/21 12:12:39;;;;;;;12.20;10.57;;;19.80;59.20;;;;;;4879141;29;20048;-83
2022/03/21 12:15:29;;;;;;;12.45;10.68;;;20.40;59.90;;;;;;4894357;29;20103;-82
2022/03/21 12:17:56;;;;;;;11.02;9.05;;;20.10;58.40;;;;;;4895652;29;20099;-84
2022/03/21 12:20:23;;;;;;;10.07;8.70;;;20.30;57.50;;;;;;4903196;29;20057;-82
2022/03/21 12:22:49;;;;;;;13.00;10.10;;;20.50;56.10;;;;;;4895266;29;20044;-82
2022/03/21 12:25:21;;;;;;;10.20;8.50;;;20.70;55.50;;;;;;4925639;29;20056;-83
2022/03/21 12:27:56;;;;;;;10.20;8.52;;;20.80;53.20;;;;;;4905022;29;20155;-82
2022/03/21 12:30:30;;;;;;;11.27;8.83;;;20.90;52.40;;;;;;4905054;29;20060;-82
2022/03/21 12:32:56;;;;;;;11.02;7.97;;;20.90;51.80;;;;;;4909710;29;20378;-83
2022/03/21 12:35:31;;;;;;;11.48;7.93;;;21.00;51.50;;;;;;4909878;29;20053;-82
2022/03/21 12:38:01;;;;;;;9.10;7.22;;;21.20;49.00;;;;;;4904210;29;20068;-83
2022/03/21 12:41:13;;;;;;;9.23;7.72;;;21.20;48.80;;;;;;4903357;29;20076;-82
2022/03/21 12:43:43;;;;;;;8.80;7.10;;;21.40;46.30;;;;;;4902963;29;20103;-82
2022/03/21 12:46:14;;;;;;;9.38;7.38;;;21.50;48.60;;;;;;4902518;29;20056;-83
2022/03/21 12:48:45;;;;;;;10.63;7.78;;;21.70;48.60;;;;;;4901436;29;20052;-81
2022/03/21 12:51:13;;;;;;;8.77;7.18;;;22.00;48.30;;;;;;4919588;29;20478;-81
2022/03/21 12:53:48;;;;;;;9.23;7.05;;;22.20;47.90;;;;;;4903113;29;20482;-83
2022/03/21 12:56:19;;;;;;;12.57;9.45;;;22.30;46.10;;;;;;4910183;29;20645;-84
2022/03/21 12:58:47;;;;;;;8.82;7.93;;;22.00;46.40;;;;;;4888315;29;20417;-83
2022/03/21 13:01:19;;;;;;;8.52;7.55;;;22.30;47.10;;;;;;4902947;29;20068;-82
2022/03/21 13:03:46;;;;;;;10.25;7.47;;;22.30;46.40;;;;;;4904250;29;20138;-84
2022/03/21 13:11:38;;;;;;;6.68;5.70;;;21.90;46.00;;;;;;4889407;29;20053;-83